createdAt,value
2023-05-17T00:00:57.220Z,432.00
2023-05-17T00:01:57.127Z,432.00
2023-05-17T00:02:57.116Z,433.00
2023-05-17T00:03:57.082Z,435.00
2023-05-17T00:04:57.201Z,436.00
2023-05-17T00:05:57.111Z,436.00
2023-05-17T00:06:57.044Z,431.00
2023-05-17T00:07:57.031Z,432.00
2023-05-17T00:08:57.021Z,432.00
2023-05-17T00:09:57.003Z,433.00
2023-05-17T00:10:56.985Z,434.00
2023-05-17T00:11:57.069Z,433.00
2023-05-17T00:12:56.961Z,431.00
2023-05-17T00:13:56.954Z,430.00
2023-05-17T00:14:56.931Z,430.00
2023-05-17T00:15:56.917Z,432.00
2023-05-17T00:16:56.913Z,434.00
2023-05-17T00:17:56.969Z,433.00
2023-05-17T00:18:56.931Z,432.00
2023-05-17T00:19:56.869Z,431.00
2023-05-17T00:20:56.837Z,431.00
2023-05-17T00:21:56.821Z,431.00
2023-05-17T00:22:56.814Z,430.00
2023-05-17T00:23:56.800Z,428.00
2023-05-17T00:24:56.772Z,431.00
2023-05-17T00:25:56.745Z,430.00
2023-05-17T00:26:56.745Z,430.00
2023-05-17T00:27:56.825Z,429.00
2023-05-17T00:28:56.696Z,428.00
2023-05-17T00:29:56.692Z,427.00
2023-05-17T00:30:56.662Z,428.00
2023-05-17T00:31:56.647Z,427.00
2023-05-17T00:32:56.694Z,432.00
2023-05-17T00:33:56.626Z,435.00
2023-05-17T00:34:56.649Z,436.00
2023-05-17T00:35:56.617Z,435.00
2023-05-17T00:36:56.577Z,434.00
2023-05-17T00:37:56.577Z,435.00
2023-05-17T00:38:56.554Z,434.00
2023-05-17T00:39:56.534Z,434.00
2023-05-17T00:40:56.514Z,434.00
2023-05-17T00:41:56.501Z,433.00
2023-05-17T00:42:56.489Z,432.00
2023-05-17T00:43:56.575Z,432.00
2023-05-17T00:44:56.458Z,432.00
2023-05-17T00:45:56.445Z,432.00
2023-05-17T00:46:56.421Z,432.00
2023-05-17T00:47:56.527Z,434.00
2023-05-17T00:48:56.410Z,433.00
2023-05-17T00:49:56.402Z,432.00
2023-05-17T00:50:56.399Z,430.00
2023-05-17T00:51:56.387Z,429.00
2023-05-17T00:52:56.391Z,427.00
2023-05-17T00:53:56.381Z,428.00
2023-05-17T00:54:56.380Z,430.00
2023-05-17T00:55:56.361Z,429.00
2023-05-17T00:56:56.346Z,428.00
2023-05-17T00:57:56.357Z,426.00
2023-05-17T00:58:56.385Z,427.00
2023-05-17T00:59:56.375Z,429.00
2023-05-17T01:00:56.355Z,429.00
2023-05-17T01:01:56.473Z,428.00
2023-05-17T01:02:56.461Z,428.00
2023-05-17T01:03:56.370Z,428.00
2023-05-17T01:04:56.346Z,427.00
2023-05-17T01:05:56.306Z,428.00
2023-05-17T01:06:56.305Z,429.00
2023-05-17T01:07:56.301Z,429.00
2023-05-17T01:08:56.309Z,429.00
2023-05-17T01:09:56.310Z,427.00
2023-05-17T01:10:56.327Z,427.00
2023-05-17T01:11:56.326Z,426.00
2023-05-17T01:12:56.318Z,424.00
2023-05-17T01:13:56.305Z,424.00
2023-05-17T01:14:56.304Z,425.00
2023-05-17T01:15:56.376Z,424.00
2023-05-17T01:16:56.270Z,428.00
2023-05-17T01:17:56.331Z,433.00
2023-05-17T01:18:56.372Z,434.00
2023-05-17T01:19:56.307Z,434.00
2023-05-17T01:20:56.239Z,436.00
2023-05-17T01:21:56.237Z,436.00
2023-05-17T01:22:56.209Z,440.00
2023-05-17T01:23:56.201Z,440.00
2023-05-17T01:24:56.198Z,440.00
2023-05-17T01:25:56.183Z,440.00
2023-05-17T01:26:56.195Z,442.00
2023-05-17T01:27:56.177Z,441.00
2023-05-17T01:28:56.168Z,440.00
2023-05-17T01:29:56.160Z,441.00
2023-05-17T01:30:56.203Z,441.00
2023-05-17T01:31:56.258Z,439.00
2023-05-17T01:32:56.227Z,439.00
2023-05-17T01:33:56.213Z,439.00
2023-05-17T01:34:56.130Z,438.00
2023-05-17T01:35:56.112Z,438.00
2023-05-17T01:36:56.108Z,437.00
2023-05-17T01:37:56.088Z,436.00
2023-05-17T01:38:56.076Z,436.00
2023-05-17T01:39:56.087Z,436.00
2023-05-17T01:40:56.083Z,437.00
2023-05-17T01:41:56.091Z,435.00
2023-05-17T01:42:56.074Z,437.00
2023-05-17T01:43:56.070Z,437.00
2023-05-17T01:44:56.057Z,438.00
2023-05-17T01:45:56.048Z,436.00
2023-05-17T01:46:56.020Z,436.00
2023-05-17T01:47:56.157Z,436.00
2023-05-17T01:48:56.120Z,433.00
2023-05-17T01:49:56.097Z,435.00
2023-05-17T01:50:55.992Z,435.00
2023-05-17T01:51:55.987Z,436.00
2023-05-17T01:52:55.988Z,434.00
2023-05-17T01:53:55.949Z,433.00
2023-05-17T01:54:55.940Z,431.00
2023-05-17T01:55:55.928Z,432.00
2023-05-17T01:56:55.915Z,433.00
2023-05-17T01:57:55.926Z,433.00
2023-05-17T01:58:55.908Z,434.00
2023-05-17T01:59:55.902Z,433.00
2023-05-17T02:00:55.952Z,434.00
2023-05-17T02:01:55.916Z,433.00
2023-05-17T02:02:55.958Z,434.00
2023-05-17T02:03:55.955Z,434.00
2023-05-17T02:04:55.900Z,436.00
2023-05-17T02:05:55.887Z,434.00
2023-05-17T02:06:55.867Z,434.00
2023-05-17T02:07:55.861Z,433.00
2023-05-17T02:08:55.848Z,432.00
2023-05-17T02:09:55.838Z,433.00
2023-05-17T02:10:55.835Z,434.00
2023-05-17T02:11:55.820Z,433.00
2023-05-17T02:12:55.819Z,433.00
2023-05-17T02:13:55.801Z,433.00
2023-05-17T02:14:55.796Z,436.00
2023-05-17T02:15:55.783Z,436.00
2023-05-17T02:16:55.765Z,436.00
2023-05-17T02:17:55.801Z,437.00
2023-05-17T02:18:55.836Z,436.00
2023-05-17T02:19:55.850Z,438.00
2023-05-17T02:20:55.724Z,438.00
2023-05-17T02:21:55.716Z,437.00
2023-05-17T02:22:55.696Z,434.00
2023-05-17T02:23:55.700Z,435.00
2023-05-17T02:24:55.690Z,436.00
2023-05-17T02:25:55.682Z,438.00
2023-05-17T02:26:55.681Z,438.00
2023-05-17T02:27:55.694Z,438.00
2023-05-17T02:28:55.677Z,442.00
2023-05-17T02:29:55.661Z,442.00
2023-05-17T02:30:55.653Z,441.00
2023-05-17T02:31:55.641Z,441.00
2023-05-17T02:32:55.688Z,440.00
2023-05-17T02:33:55.737Z,440.00
2023-05-17T02:34:55.627Z,442.00
2023-05-17T02:35:55.725Z,443.00
2023-05-17T02:36:55.605Z,441.00
2023-05-17T02:37:55.610Z,439.00
2023-05-17T02:38:55.607Z,436.00
2023-05-17T02:39:55.587Z,437.00
2023-05-17T02:40:55.576Z,436.00
2023-05-17T02:41:55.574Z,436.00
2023-05-17T02:42:55.569Z,434.00
2023-05-17T02:43:55.561Z,435.00
2023-05-17T02:44:55.556Z,436.00
2023-05-17T02:45:55.551Z,437.00
2023-05-17T02:46:55.560Z,439.00
2023-05-17T02:47:55.563Z,440.00
2023-05-17T02:48:55.545Z,439.00
2023-05-17T02:49:55.547Z,439.00
2023-05-17T02:50:55.539Z,438.00
2023-05-17T02:51:55.693Z,439.00
2023-05-17T02:52:55.535Z,439.00
2023-05-17T02:53:55.529Z,437.00
2023-05-17T02:54:55.531Z,436.00
2023-05-17T02:55:55.526Z,436.00
2023-05-17T02:56:55.519Z,436.00
2023-05-17T02:57:55.507Z,436.00
2023-05-17T02:58:55.503Z,436.00
2023-05-17T02:59:55.512Z,437.00
2023-05-17T03:00:55.492Z,437.00
2023-05-17T03:01:55.481Z,437.00
2023-05-17T03:02:55.530Z,436.00
2023-05-17T03:03:55.713Z,435.00
2023-05-17T03:04:55.476Z,433.00
2023-05-17T03:05:55.470Z,435.00
2023-05-17T03:06:55.457Z,436.00
2023-05-17T03:07:55.614Z,437.00
2023-05-17T03:08:55.474Z,438.00
2023-05-17T03:09:55.456Z,438.00
2023-05-17T03:10:55.467Z,438.00
2023-05-17T03:11:55.447Z,437.00
2023-05-17T03:12:55.445Z,435.00
2023-05-17T03:13:55.444Z,435.00
2023-05-17T03:14:55.435Z,434.00
2023-05-17T03:15:55.414Z,434.00
2023-05-17T03:16:55.409Z,431.00
2023-05-17T03:17:55.454Z,433.00
2023-05-17T03:18:55.576Z,434.00
2023-05-17T03:19:55.637Z,434.00
2023-05-17T03:20:55.385Z,435.00
2023-05-17T03:21:55.371Z,434.00
2023-05-17T03:22:55.343Z,434.00
2023-05-17T03:23:55.436Z,436.00
2023-05-17T03:24:55.312Z,437.00
2023-05-17T03:25:55.303Z,435.00
2023-05-17T03:26:55.324Z,434.00
2023-05-17T03:27:55.301Z,433.00
2023-05-17T03:28:55.304Z,429.00
2023-05-17T03:29:55.298Z,428.00
2023-05-17T03:30:55.400Z,429.00
2023-05-17T03:31:55.308Z,429.00
2023-05-17T03:32:55.395Z,431.00
2023-05-17T03:33:55.374Z,432.00
2023-05-17T03:34:55.348Z,431.00
2023-05-17T03:35:55.360Z,432.00
2023-05-17T03:36:55.354Z,434.00
2023-05-17T03:37:55.375Z,433.00
2023-05-17T03:38:55.390Z,432.00
2023-05-17T03:39:55.438Z,432.00
2023-05-17T03:40:55.448Z,429.00
2023-05-17T03:41:55.485Z,426.00
2023-05-17T03:42:55.485Z,425.00
2023-05-17T03:43:55.517Z,424.00
2023-05-17T03:44:55.553Z,425.00
2023-05-17T03:45:55.587Z,426.00
2023-05-17T03:46:55.614Z,427.00
2023-05-17T03:47:55.683Z,432.00
2023-05-17T03:48:55.724Z,432.00
2023-05-17T03:49:55.779Z,434.00
2023-05-17T03:50:55.843Z,433.00
2023-05-17T03:51:55.843Z,434.00
2023-05-17T03:52:55.872Z,434.00
2023-05-17T03:53:55.900Z,435.00
2023-05-17T03:54:55.929Z,433.00
2023-05-17T03:55:56.077Z,433.00
2023-05-17T03:56:55.989Z,433.00
2023-05-17T03:57:56.013Z,431.00
2023-05-17T03:58:56.041Z,427.00
2023-05-17T03:59:56.070Z,430.00
2023-05-17T04:00:56.132Z,431.00
2023-05-17T04:01:56.137Z,431.00
2023-05-17T04:02:56.196Z,430.00
2023-05-17T04:03:56.237Z,431.00
2023-05-17T04:04:56.288Z,431.00
2023-05-17T04:05:56.384Z,433.00
2023-05-17T04:06:56.393Z,435.00
2023-05-17T04:07:56.436Z,435.00
2023-05-17T04:08:56.488Z,435.00
2023-05-17T04:09:56.540Z,434.00
2023-05-17T04:10:56.584Z,435.00
2023-05-17T04:11:56.798Z,434.00
2023-05-17T04:12:56.695Z,433.00
2023-05-17T04:13:56.715Z,433.00
2023-05-17T04:14:56.729Z,435.00
2023-05-17T04:15:56.756Z,435.00
2023-05-17T04:16:56.809Z,436.00
2023-05-17T04:17:56.945Z,437.00
2023-05-17T04:18:56.981Z,436.00
2023-05-17T04:19:57.007Z,438.00
2023-05-17T04:20:57.024Z,436.00
2023-05-17T04:21:57.105Z,435.00
2023-05-17T04:22:57.141Z,435.00
2023-05-17T04:23:57.214Z,434.00
2023-05-17T04:24:57.254Z,433.00
2023-05-17T04:25:57.295Z,433.00
2023-05-17T04:26:57.359Z,434.00
2023-05-17T04:27:57.536Z,437.00
2023-05-17T04:28:57.456Z,437.00
2023-05-17T04:29:57.514Z,436.00
2023-05-17T04:30:57.578Z,436.00
2023-05-17T04:31:57.632Z,437.00
2023-05-17T04:32:57.708Z,436.00
2023-05-17T04:33:57.852Z,436.00
2023-05-17T04:34:57.800Z,433.00
2023-05-17T04:35:57.821Z,432.00
2023-05-17T04:36:57.862Z,431.00
2023-05-17T04:37:57.919Z,430.00
2023-05-17T04:38:57.961Z,430.00
2023-05-17T04:39:58.017Z,426.00
2023-05-17T04:40:58.067Z,426.00
2023-05-17T04:41:58.155Z,427.00
2023-05-17T04:42:58.172Z,425.00
2023-05-17T04:43:58.344Z,423.00
2023-05-17T04:44:58.263Z,427.00
2023-05-17T04:45:58.329Z,428.00
2023-05-17T04:46:58.363Z,427.00
2023-05-17T04:47:58.441Z,427.00
2023-05-17T04:48:58.751Z,429.00
2023-05-17T04:49:58.494Z,429.00
2023-05-17T04:50:58.537Z,429.00
2023-05-17T04:51:58.573Z,429.00
2023-05-17T04:52:58.630Z,429.00
2023-05-17T04:53:58.712Z,429.00
2023-05-17T04:54:58.733Z,427.00
2023-05-17T04:55:58.794Z,425.00
2023-05-17T04:56:58.841Z,422.00
2023-05-17T04:57:58.877Z,424.00
2023-05-17T04:58:58.942Z,422.00
2023-05-17T04:59:59.158Z,422.00
2023-05-17T05:00:59.051Z,425.00
2023-05-17T05:01:59.073Z,425.00
2023-05-17T05:02:59.132Z,426.00
2023-05-17T05:03:59.280Z,426.00
2023-05-17T05:04:59.234Z,425.00
2023-05-17T05:05:59.250Z,425.00
2023-05-17T05:06:59.301Z,425.00
2023-05-17T05:07:59.349Z,426.00
2023-05-17T05:08:59.407Z,429.00
2023-05-17T05:09:59.450Z,431.00
2023-05-17T05:10:59.499Z,432.00
2023-05-17T05:11:59.537Z,429.00
2023-05-17T05:12:59.595Z,428.00
2023-05-17T05:13:59.662Z,425.00
2023-05-17T05:15:00.961Z,421.00
2023-05-17T05:16:00.060Z,419.00
2023-05-17T05:16:59.980Z,421.00
2023-05-17T05:18:00.088Z,419.00
2023-05-17T05:19:00.764Z,419.00
2023-05-17T05:20:00.287Z,417.00
2023-05-17T05:21:00.151Z,416.00
2023-05-17T05:22:00.196Z,420.00
2023-05-17T05:23:00.520Z,423.00
2023-05-17T05:24:00.290Z,424.00
2023-05-17T05:25:00.370Z,427.00
2023-05-17T05:26:00.395Z,433.00
2023-05-17T05:27:00.447Z,434.00
2023-05-17T05:28:00.493Z,436.00
2023-05-17T05:29:00.560Z,437.00
2023-05-17T05:30:00.625Z,439.00
2023-05-17T05:31:00.662Z,441.00
2023-05-17T05:32:00.856Z,440.00
2023-05-17T05:33:01.119Z,441.00
2023-05-17T05:34:00.816Z,442.00
2023-05-17T05:35:00.825Z,439.00
2023-05-17T05:36:00.953Z,440.00
2023-05-17T05:37:00.930Z,440.00
2023-05-17T05:38:01.058Z,440.00
2023-05-17T05:39:01.031Z,440.00
2023-05-17T05:40:01.113Z,442.00
2023-05-17T05:41:01.140Z,442.00
2023-05-17T05:42:01.220Z,441.00
2023-05-17T05:43:01.537Z,441.00
2023-05-17T05:44:01.322Z,443.00
2023-05-17T05:45:01.365Z,444.00
2023-05-17T05:46:01.398Z,445.00
2023-05-17T05:47:01.548Z,448.00
2023-05-17T05:48:01.771Z,449.00
2023-05-17T05:49:01.538Z,448.00
2023-05-17T05:50:01.502Z,449.00
2023-05-17T05:51:01.546Z,451.00
2023-05-17T05:52:01.608Z,453.00
2023-05-17T05:53:14.394Z,453.00
2023-05-17T05:54:04.859Z,457.00
2023-05-17T05:55:02.045Z,467.00
2023-05-17T05:57:02.598Z,549.00
2023-05-17T05:58:01.572Z,567.00
2023-05-17T05:59:02.051Z,572.00
2023-05-17T06:00:01.542Z,576.00
2023-05-17T06:01:02.902Z,588.00
2023-05-17T06:02:01.495Z,602.00
2023-05-17T06:03:01.645Z,608.00
2023-05-17T06:04:17.242Z,620.00
2023-05-17T06:05:01.442Z,630.00
2023-05-17T06:06:08.884Z,636.00
2023-05-17T06:07:01.581Z,646.00
2023-05-17T06:08:01.572Z,662.00
2023-05-17T06:09:01.379Z,670.00
2023-05-17T06:10:01.350Z,678.00
2023-05-17T06:11:01.323Z,685.00
2023-05-17T06:12:01.306Z,692.00
2023-05-17T06:13:01.555Z,694.00
2023-05-17T06:14:01.264Z,705.00
2023-05-17T06:15:01.238Z,713.00
2023-05-17T06:16:16.838Z,726.00
2023-05-17T06:17:01.195Z,730.00
2023-05-17T06:18:01.730Z,736.00
2023-05-17T06:19:01.304Z,740.00
2023-05-17T06:20:01.201Z,743.00
2023-05-17T06:21:01.149Z,747.00
2023-05-17T06:22:01.067Z,750.00
2023-05-17T06:23:01.069Z,757.00
2023-05-17T06:24:02.754Z,769.00
2023-05-17T06:25:00.978Z,774.00
2023-05-17T06:26:00.965Z,778.00
2023-05-17T06:27:00.940Z,783.00
2023-05-17T06:28:00.920Z,789.00
2023-05-17T06:29:00.911Z,791.00
2023-05-17T06:30:01.684Z,791.00
2023-05-17T06:31:01.057Z,797.00
2023-05-17T06:32:00.873Z,800.00
2023-05-17T06:33:01.176Z,802.00
2023-05-17T06:34:00.871Z,803.00
2023-05-17T06:35:00.786Z,799.00
2023-05-17T06:36:59.753Z,794.00
2023-05-17T06:38:01.056Z,791.00
2023-05-17T06:39:00.703Z,791.00
2023-05-17T06:40:10.292Z,794.00
2023-05-17T06:41:00.659Z,795.00
2023-05-17T06:42:00.652Z,797.00
2023-05-17T06:43:01.059Z,798.00
2023-05-17T06:44:00.595Z,803.00
2023-05-17T06:45:00.571Z,808.00
2023-05-17T06:46:00.565Z,809.00
2023-05-17T06:47:00.534Z,806.00
2023-05-17T06:48:00.684Z,807.00
2023-05-17T06:49:01.865Z,826.00
2023-05-17T06:50:07.961Z,838.00
2023-05-17T06:51:00.646Z,845.00
2023-05-17T06:52:03.802Z,840.00
2023-05-17T06:53:03.688Z,833.00
2023-05-17T06:54:00.589Z,830.00
2023-05-17T06:55:00.452Z,827.00
2023-05-17T06:57:07.760Z,818.00
2023-05-17T06:58:01.332Z,820.00
2023-05-17T06:59:02.326Z,821.00
2023-05-17T07:00:01.372Z,814.00
2023-05-17T07:01:07.725Z,803.00
2023-05-17T07:02:03.436Z,686.00
2023-05-17T07:04:00.354Z,681.00
2023-05-17T07:05:08.093Z,670.00
2023-05-17T07:06:01.418Z,657.00
2023-05-17T07:07:00.345Z,645.00
2023-05-17T07:08:01.033Z,625.00
2023-05-17T07:09:15.694Z,618.00
2023-05-17T07:10:00.058Z,605.00
2023-05-17T07:11:00.047Z,599.00
2023-05-17T07:12:00.061Z,591.00
2023-05-17T07:13:00.083Z,586.00
2023-05-17T07:13:59.994Z,582.00
2023-05-17T07:14:59.971Z,580.00
2023-05-17T07:15:59.937Z,573.00
2023-05-17T07:16:59.935Z,569.00
2023-05-17T07:18:00.178Z,567.00
2023-05-17T07:19:00.204Z,566.00
2023-05-17T07:20:00.004Z,561.00
2023-05-17T07:20:59.838Z,561.00
2023-05-17T07:21:59.828Z,560.00
2023-05-17T07:22:59.800Z,559.00
2023-05-17T07:24:00.189Z,555.00
2023-05-17T07:24:59.772Z,550.00
2023-05-17T07:25:59.752Z,552.00
2023-05-17T07:26:59.741Z,551.00
2023-05-17T07:27:59.777Z,547.00
2023-05-17T07:28:59.712Z,541.00
2023-05-17T07:30:00.082Z,546.00
2023-05-17T07:30:59.682Z,560.00
2023-05-17T07:31:59.660Z,571.00
2023-05-17T07:33:00.152Z,580.00
2023-05-17T07:33:59.656Z,589.00
2023-05-17T07:35:00.663Z,599.00
2023-05-17T07:36:01.117Z,602.00
2023-05-17T07:36:59.746Z,606.00
2023-05-17T07:38:00.788Z,611.00
2023-05-17T07:39:03.111Z,618.00
2023-05-17T07:40:00.089Z,627.00
2023-05-17T07:40:59.764Z,633.00
2023-05-17T07:42:07.232Z,642.00
2023-05-17T07:43:03.396Z,648.00
2023-05-17T07:43:59.713Z,653.00
2023-05-17T07:44:59.697Z,659.00
2023-05-17T07:45:59.671Z,666.00
2023-05-17T07:47:00.731Z,673.00
2023-05-17T07:48:00.231Z,684.00
2023-05-17T07:48:59.699Z,696.00
2023-05-17T07:49:59.603Z,702.00
2023-05-17T07:50:59.594Z,713.00
2023-05-17T07:52:00.087Z,717.00
2023-05-17T07:52:59.602Z,719.00
2023-05-17T07:53:59.602Z,720.00
2023-05-17T07:54:59.530Z,722.00
2023-05-17T07:55:59.468Z,721.00
2023-05-17T07:56:59.445Z,717.00
2023-05-17T07:58:00.580Z,712.00
2023-05-17T07:59:02.651Z,711.00
2023-05-17T08:00:06.752Z,708.00
2023-05-17T08:01:02.576Z,706.00
2023-05-17T08:02:06.926Z,704.00
2023-05-17T08:02:59.645Z,705.00
2023-05-17T08:03:59.291Z,704.00
2023-05-17T08:04:59.238Z,710.00
2023-05-17T08:05:59.269Z,718.00
2023-05-17T08:06:59.179Z,727.00
2023-05-17T08:07:59.599Z,736.00
2023-05-17T08:08:59.150Z,743.00
2023-05-17T08:09:59.164Z,751.00
2023-05-17T08:10:59.124Z,755.00
2023-05-17T08:11:59.079Z,756.00
2023-05-17T08:12:59.092Z,758.00
2023-05-17T08:13:59.029Z,760.00
2023-05-17T08:14:59.005Z,759.00
2023-05-17T08:16:08.879Z,758.00
2023-05-17T08:16:58.938Z,757.00
2023-05-17T08:18:00.367Z,743.00
2023-05-17T08:18:58.992Z,734.00
2023-05-17T08:19:58.964Z,729.00
2023-05-17T08:20:58.841Z,703.00
2023-05-17T08:21:58.809Z,683.00
2023-05-17T08:22:59.100Z,653.00
2023-05-17T08:23:58.786Z,630.00
2023-05-17T08:24:58.757Z,633.00
2023-05-17T08:25:58.729Z,639.00
2023-05-17T08:26:58.752Z,639.00
2023-05-17T08:27:59.104Z,636.00
2023-05-17T08:28:58.669Z,634.00
2023-05-17T08:29:58.657Z,634.00
2023-05-17T08:30:58.643Z,629.00
2023-05-17T08:31:59.597Z,621.00
2023-05-17T08:32:58.937Z,623.00
2023-05-17T08:33:58.653Z,619.00
2023-05-17T08:34:58.550Z,614.00
2023-05-17T08:35:58.529Z,610.00
2023-05-17T08:36:58.648Z,609.00
2023-05-17T08:37:58.511Z,609.00
2023-05-17T08:38:58.451Z,605.00
2023-05-17T08:39:58.460Z,608.00
2023-05-17T08:40:59.445Z,609.00
2023-05-17T08:41:59.422Z,606.00
2023-05-17T08:43:02.361Z,605.00
2023-05-17T08:43:58.613Z,618.00
2023-05-17T08:44:58.603Z,636.00
2023-05-17T08:46:01.838Z,644.00
2023-05-17T08:46:58.952Z,645.00
2023-05-17T08:47:58.718Z,649.00
2023-05-17T08:48:58.454Z,643.00
2023-05-17T08:49:58.480Z,642.00
2023-05-17T08:50:58.604Z,643.00
2023-05-17T08:51:58.599Z,641.00
2023-05-17T08:52:58.356Z,647.00
2023-05-17T08:53:58.290Z,644.00
2023-05-17T08:54:58.603Z,643.00
2023-05-17T08:55:58.247Z,645.00
2023-05-17T08:56:58.605Z,647.00
2023-05-17T08:57:58.400Z,644.00
2023-05-17T08:58:58.431Z,654.00
2023-05-17T08:59:58.137Z,650.00
2023-05-17T09:00:58.138Z,648.00
2023-05-17T09:01:58.112Z,647.00
2023-05-17T09:02:58.713Z,649.00
2023-05-17T09:03:58.885Z,651.00
2023-05-17T09:04:58.300Z,652.00
2023-05-17T09:05:58.393Z,646.00
2023-05-17T09:06:58.318Z,643.00
2023-05-17T09:07:58.386Z,643.00
2023-05-17T09:08:58.615Z,640.00
2023-05-17T09:09:58.479Z,636.00
2023-05-17T09:10:58.514Z,634.00
2023-05-17T09:11:58.550Z,634.00
2023-05-17T09:12:59.195Z,634.00
2023-05-17T09:13:57.647Z,635.00
2023-05-17T09:14:58.731Z,635.00
2023-05-17T09:15:58.757Z,637.00
2023-05-17T09:16:58.808Z,639.00
2023-05-17T09:17:59.219Z,643.00
2023-05-17T09:18:59.342Z,645.00
2023-05-17T09:19:59.268Z,653.00
2023-05-17T09:20:58.970Z,653.00
2023-05-17T09:21:59.036Z,655.00
2023-05-17T09:22:59.114Z,651.00
2023-05-17T09:24:06.464Z,649.00
2023-05-17T09:24:59.082Z,649.00
2023-05-17T09:25:59.098Z,648.00
2023-05-17T09:26:59.058Z,648.00
2023-05-17T09:28:00.137Z,661.00
2023-05-17T09:28:59.057Z,672.00
2023-05-17T09:29:59.145Z,673.00
2023-05-17T09:30:59.031Z,670.00
2023-05-17T09:31:58.982Z,677.00
2023-05-17T09:32:58.979Z,672.00
2023-05-17T09:34:02.295Z,664.00
2023-05-17T09:34:59.120Z,667.00
2023-05-17T09:35:58.914Z,669.00
2023-05-17T09:36:59.117Z,669.00
2023-05-17T09:38:02.332Z,658.00
2023-05-17T09:38:58.960Z,653.00
2023-05-17T09:39:58.855Z,648.00
2023-05-17T09:41:02.039Z,648.00
2023-05-17T09:41:59.134Z,652.00
2023-05-17T09:42:59.125Z,658.00
2023-05-17T09:43:58.788Z,662.00
2023-05-17T09:44:58.777Z,662.00
2023-05-17T09:45:58.771Z,663.00
2023-05-17T09:46:58.759Z,665.00
2023-05-17T09:48:06.635Z,661.00
2023-05-17T09:48:58.882Z,665.00
2023-05-17T09:49:59.130Z,666.00
2023-05-17T09:51:01.843Z,668.00
2023-05-17T09:51:59.640Z,675.00
2023-05-17T09:52:58.617Z,676.00
2023-05-17T09:53:58.627Z,678.00
2023-05-17T09:54:58.701Z,676.00
2023-05-17T09:55:58.573Z,670.00
2023-05-17T09:56:58.531Z,670.00
2023-05-17T09:57:58.513Z,674.00
2023-05-17T09:58:58.598Z,677.00
2023-05-17T09:59:58.510Z,679.00
2023-05-17T10:00:58.563Z,686.00
2023-05-17T10:01:58.603Z,683.00
2023-05-17T10:02:58.834Z,679.00
2023-05-17T10:03:59.177Z,680.00
2023-05-17T10:04:59.191Z,674.00
2023-05-17T10:05:58.766Z,673.00
2023-05-17T10:06:58.800Z,675.00
2023-05-17T10:07:58.834Z,676.00
2023-05-17T10:08:58.866Z,681.00
2023-05-17T10:09:58.894Z,687.00
2023-05-17T10:10:58.930Z,694.00
2023-05-17T10:11:58.961Z,704.00
2023-05-17T10:12:58.989Z,710.00
2023-05-17T10:13:59.147Z,709.00
2023-05-17T10:14:59.097Z,714.00
2023-05-17T10:15:59.077Z,782.00
2023-05-17T10:17:02.312Z,766.00
2023-05-17T10:17:59.211Z,764.00
2023-05-17T10:18:59.133Z,766.00
2023-05-17T10:19:59.161Z,768.00
2023-05-17T10:20:58.027Z,769.00
2023-05-17T10:22:11.136Z,771.00
2023-05-17T10:22:58.994Z,769.00
2023-05-17T10:24:02.349Z,766.00
2023-05-17T10:24:59.169Z,765.00
2023-05-17T10:25:58.907Z,766.00
2023-05-17T10:26:58.890Z,760.00
2023-05-17T10:27:58.854Z,753.00
2023-05-17T10:28:58.833Z,753.00
2023-05-17T10:29:59.149Z,759.00
2023-05-17T10:30:58.803Z,769.00
2023-05-17T10:31:58.813Z,774.00
2023-05-17T10:32:58.897Z,777.00
2023-05-17T10:33:58.795Z,782.00
2023-05-17T10:35:10.337Z,789.00
2023-05-17T10:35:58.697Z,794.00
2023-05-17T10:36:58.683Z,809.00
2023-05-17T10:37:58.652Z,814.00
2023-05-17T10:38:58.653Z,814.00
2023-05-17T10:39:58.611Z,813.00
2023-05-17T10:40:59.367Z,820.00
2023-05-17T10:42:13.405Z,824.00
2023-05-17T10:42:58.562Z,822.00
2023-05-17T10:43:58.537Z,827.00
2023-05-17T10:44:58.644Z,828.00
2023-05-17T10:45:58.493Z,831.00
2023-05-17T10:46:58.472Z,836.00
2023-05-17T10:48:00.926Z,831.00
2023-05-17T10:48:58.691Z,826.00
2023-05-17T10:49:58.411Z,826.00
2023-05-17T10:51:01.690Z,826.00
2023-05-17T10:51:58.360Z,837.00
2023-05-17T10:52:58.330Z,839.00
2023-05-17T10:53:58.645Z,835.00
2023-05-17T10:54:58.281Z,835.00
2023-05-17T10:55:58.252Z,838.00
2023-05-17T10:56:58.236Z,843.00
2023-05-17T10:57:58.218Z,848.00
2023-05-17T10:58:58.196Z,838.00
2023-05-17T10:59:58.172Z,831.00
2023-05-17T11:00:58.141Z,832.00
2023-05-17T11:01:58.114Z,824.00
2023-05-17T11:02:58.173Z,818.00
2023-05-17T11:03:58.068Z,826.00
2023-05-17T11:04:58.240Z,834.00
2023-05-17T11:05:58.029Z,832.00
2023-05-17T11:06:58.033Z,837.00
2023-05-17T11:07:57.960Z,833.00
2023-05-17T11:08:58.163Z,821.00
2023-05-17T11:09:57.913Z,815.00
2023-05-17T11:10:57.893Z,819.00
2023-05-17T11:11:57.869Z,809.00
2023-05-17T11:12:58.153Z,808.00
2023-05-17T11:13:57.839Z,812.00
2023-05-17T11:14:57.807Z,821.00
2023-05-17T11:15:57.775Z,817.00
2023-05-17T11:16:58.464Z,823.00
2023-05-17T11:17:57.782Z,868.00
2023-05-17T11:18:58.402Z,867.00
2023-05-17T11:19:57.849Z,858.00
2023-05-17T11:20:57.818Z,848.00
2023-05-17T11:21:57.690Z,846.00
2023-05-17T11:22:57.752Z,841.00
2023-05-17T11:23:57.678Z,836.00
2023-05-17T11:24:57.688Z,826.00
2023-05-17T11:26:09.120Z,828.00
2023-05-17T11:26:57.631Z,834.00
2023-05-17T11:27:57.615Z,839.00
2023-05-17T11:28:57.588Z,839.00
2023-05-17T11:29:57.604Z,849.00
2023-05-17T11:30:57.527Z,846.00
2023-05-17T11:31:57.506Z,847.00
2023-05-17T11:32:57.511Z,842.00
2023-05-17T11:33:57.486Z,831.00
2023-05-17T11:34:57.441Z,820.00
2023-05-17T11:35:57.429Z,807.00
2023-05-17T11:36:57.429Z,805.00
2023-05-17T11:37:57.375Z,815.00
2023-05-17T11:39:07.459Z,821.00
2023-05-17T11:39:57.327Z,828.00
2023-05-17T11:40:57.304Z,833.00
2023-05-17T11:41:57.274Z,837.00
2023-05-17T11:42:57.245Z,834.00
2023-05-17T11:43:57.233Z,838.00
2023-05-17T11:44:57.201Z,834.00
2023-05-17T11:45:57.168Z,833.00
2023-05-17T11:46:57.158Z,832.00
2023-05-17T11:47:57.221Z,824.00
2023-05-17T11:48:57.250Z,825.00
2023-05-17T11:49:57.072Z,828.00
2023-05-17T11:50:57.079Z,827.00
2023-05-17T11:51:57.022Z,827.00
2023-05-17T11:52:56.987Z,824.00
2023-05-17T11:53:56.967Z,828.00
2023-05-17T11:54:56.974Z,828.00
2023-05-17T11:55:56.923Z,828.00
2023-05-17T11:56:56.904Z,830.00
2023-05-17T11:57:56.869Z,833.00
2023-05-17T11:58:56.850Z,827.00
2023-05-17T11:59:57.172Z,826.00
2023-05-17T12:00:56.830Z,837.00
2023-05-17T12:01:56.797Z,838.00
2023-05-17T12:02:56.796Z,829.00
2023-05-17T12:03:56.730Z,823.00
2023-05-17T12:04:56.907Z,816.00
2023-05-17T12:05:56.730Z,814.00
2023-05-17T12:06:56.689Z,830.00
2023-05-17T12:07:56.647Z,843.00
2023-05-17T12:08:56.683Z,866.00
2023-05-17T12:09:56.628Z,857.00
2023-05-17T12:10:56.719Z,864.00
2023-05-17T12:11:56.566Z,859.00
2023-05-17T12:12:56.549Z,862.00
2023-05-17T12:13:56.536Z,859.00
2023-05-17T12:14:56.516Z,861.00
2023-05-17T12:15:56.478Z,864.00
2023-05-17T12:16:56.688Z,867.00
2023-05-17T12:17:56.623Z,868.00
2023-05-17T12:18:56.831Z,861.00
2023-05-17T12:19:56.540Z,856.00
2023-05-17T12:20:56.364Z,856.00
2023-05-17T12:21:56.347Z,853.00
2023-05-17T12:22:56.326Z,855.00
2023-05-17T12:23:56.301Z,851.00
2023-05-17T12:24:56.376Z,840.00
2023-05-17T12:25:56.257Z,843.00
2023-05-17T12:26:56.280Z,839.00
2023-05-17T12:27:56.223Z,838.00
2023-05-17T12:28:59.386Z,839.00
2023-05-17T12:29:56.164Z,840.00
2023-05-17T12:30:56.134Z,836.00
2023-05-17T12:31:56.110Z,835.00
2023-05-17T12:32:56.157Z,833.00